Maersk Tide — 9VEC — position and weather

sailwx.info

Track history (hours):
 
Tides and Currents Weather Stations Pressure Air Temp Water Temp Dewpoint Dewpoint Depression Visibility Wind Speed Wind Dir Waves Ship Positions

Maersk Tide

Last reported at 2018-Jun-22 04:44 UTC. Time now 2018-Jun-22 07:30 UTC.
Position N 36°43' E 023°42'.

Type: Cargo ship. MMSI: 564185000.

Date/timePositionNaut miles runAvg speedWind from/ knotsBaromVisibWave heightAir tempDewpointWater temp
2018-Jun-22 04:44N 36°43' E 023°42'415.8
2018-Jun-22 04:30N 36°46' E 023°45'  
2018-Jun-16 20:27N 37°37' E 024°09'916.7
2018-Jun-16 19:56N 37°33' E 023°59'816.9
2018-Jun-16 19:29N 37°36' E 023°50'816.3
2018-Jun-16 19:01N 37°40' E 023°42'816.9
2018-Jun-16 18:30N 37°47' E 023°37'815.1
2018-Jun-16 18:01N 37°55' E 023°37'3 5.2
2018-Jun-16 17:30N 37°58' E 023°36'0 0.0
2018-Jun-16 16:59N 37°58' E 023°36'0 0.0
2018-Jun-16 16:29N 37°58' E 023°36'0 0.0
2018-Jun-16 15:59N 37°58' E 023°36'0 0.0
2018-Jun-16 15:29N 37°58' E 023°36'0 0.0
2018-Jun-16 14:59N 37°58' E 023°36'0 0.0
2018-Jun-16 14:29N 37°58' E 023°36'0 0.0
2018-Jun-16 13:59N 37°58' E 023°36'0 0.0
2018-Jun-16 13:29N 37°58' E 023°36'0 0.0
2018-Jun-16 12:59N 37°58' E 023°36'0 0.0
2018-Jun-16 12:29N 37°58' E 023°36'0 0.0
2018-Jun-16 11:59N 37°58' E 023°36'0 0.2
2018-Jun-16 11:31N 37°57' E 023°36'3 5.4
2018-Jun-16 11:00N 37°55' E 023°36'0 0.8
2018-Jun-16 10:30N 37°54' E 023°36'1 2.5
2018-Jun-16 10:00N 37°54' E 023°37'2 3.5
2018-Jun-16 09:31N 37°53' E 023°38'4 8.6
2018-Jun-16 09:00N 37°49' E 023°40'611.2
2018-Jun-16 08:31N 37°44' E 023°43'510.6
2018-Jun-16 08:00N 37°38' E 023°45'611.3
2018-Jun-16 07:30N 37°33' E 023°44'1311.1
2018-Jun-16 06:20N 37°20' E 023°40'  
2018-Jun-13 14:49N 42°60' E 010°03'516.9
2018-Jun-13 14:30N 43°05' E 010°05'817.0
2018-Jun-13 14:01N 43°13' E 010°07'816.9
2018-Jun-13 13:30N 43°21' E 010°09'815.6
2018-Jun-13 13:00N 43°29' E 010°11'510.0
2018-Jun-13 12:31N 43°32' E 010°16'2 4.5
2018-Jun-13 12:00N 43°34' E 010°18'1 1.4
2018-Jun-13 11:28N 43°35' E 010°18'0 0.0
2018-Jun-13 10:58N 43°35' E 010°18'0 0.0
2018-Jun-13 10:28N 43°35' E 010°18'0 0.0
2018-Jun-13 09:55N 43°35' E 010°18'0 0.0
2018-Jun-13 09:28N 43°35' E 010°18'0 0.0
2018-Jun-13 08:58N 43°35' E 010°18'0 0.0
2018-Jun-13 08:28N 43°35' E 010°18'0 0.0
2018-Jun-13 07:58N 43°35' E 010°18'0 0.0
2018-Jun-13 07:28N 43°35' E 010°18'0 0.0
2018-Jun-13 06:58N 43°35' E 010°18'0 0.0
2018-Jun-13 06:28N 43°35' E 010°18'0 0.0
2018-Jun-13 05:58N 43°35' E 010°18'0 0.0
2018-Jun-13 05:28N 43°35' E 010°18'0 0.0
2018-Jun-13 04:58N 43°35' E 010°18'0 0.0
2018-Jun-13 04:28N 43°35' E 010°18'0 0.0
2018-Jun-13 03:58N 43°35' E 010°18'0 0.0
2018-Jun-13 03:28N 43°35' E 010°18'0 0.0
2018-Jun-13 02:58N 43°35' E 010°18'0 0.0
2018-Jun-13 02:28N 43°35' E 010°18'0 0.0
2018-Jun-13 01:55N 43°35' E 010°18'0 0.0
2018-Jun-13 01:28N 43°35' E 010°18'0 0.0
2018-Jun-13 00:58N 43°35' E 010°18'0 0.0
2018-Jun-13 00:28N 43°35' E 010°18'0 0.0
2018-Jun-12 23:58N 43°35' E 010°18'0 0.0
2018-Jun-12 23:28N 43°35' E 010°18'0 0.0
2018-Jun-12 22:58N 43°35' E 010°18'0 0.0
2018-Jun-12 22:28N 43°35' E 010°18'0 0.0
2018-Jun-12 21:58N 43°35' E 010°18'0 0.0
2018-Jun-12 21:25N 43°35' E 010°18'0 0.0
2018-Jun-12 20:55N 43°35' E 010°18'0 0.0
2018-Jun-12 20:28N 43°35' E 010°18'0 0.0
2018-Jun-12 19:58N 43°35' E 010°18'0 0.0
2018-Jun-12 19:28N 43°35' E 010°18'0 0.0
2018-Jun-12 18:58N 43°35' E 010°18'0 0.0
2018-Jun-12 18:28N 43°35' E 010°18'0 0.0
2018-Jun-12 17:58N 43°35' E 010°18'0 0.0
2018-Jun-12 17:28N 43°35' E 010°18'0 0.0
2018-Jun-12 16:58N 43°35' E 010°18'0 0.0
2018-Jun-12 16:28N 43°35' E 010°18'0 0.0
2018-Jun-12 15:58N 43°35' E 010°18'0 0.0
2018-Jun-12 15:28N 43°35' E 010°18'1 1.8
2018-Jun-12 15:01N 43°34' E 010°18'3 6.3
2018-Jun-12 14:30N 43°32' E 010°16'3 7.0
2018-Jun-12 14:00N 43°29' E 010°12'612.6
2018-Jun-12 13:30N 43°24' E 010°07'612.9
2018-Jun-12 13:00N 43°19' E 010°01'612.8
2018-Jun-12 12:30N 43°16' E 009°54'713.4
2018-Jun-12 12:00N 43°14' E 009°45'713.6
2018-Jun-12 11:30N 43°12' E 009°36'713.4
2018-Jun-12 11:00N 43°09' E 009°27'713.1
2018-Jun-12 10:29N 43°07' E 009°19'713.4
2018-Jun-12 10:00N 43°04' E 009°11'714.0
2018-Jun-12 09:30N 43°02' E 009°02'  
Track history (hours):
 
Tides and Currents Weather Stations Pressure Air Temp Water Temp Dewpoint Dewpoint Depression Visibility Wind Speed Wind Dir Waves Ship Positions

Maersk Tide

Last reported at 2018-Jun-22 04:44 UTC. Time now 2018-Jun-22 07:30 UTC.
Position N 36°43' E 023°42'.

Type: Cargo ship. MMSI: 564185000.

Date/timePositionNaut miles runAvg speedWind from/ knotsBaromVisibWave heightAir tempDewpointWater temp
2018-Jun-22 04:44N 36°43' E 023°42'415.8
2018-Jun-22 04:30N 36°46' E 023°45'  
2018-Jun-16 20:27N 37°37' E 024°09'916.7
2018-Jun-16 19:56N 37°33' E 023°59'816.9
2018-Jun-16 19:29N 37°36' E 023°50'816.3
2018-Jun-16 19:01N 37°40' E 023°42'816.9
2018-Jun-16 18:30N 37°47' E 023°37'815.1
2018-Jun-16 18:01N 37°55' E 023°37'3 5.2
2018-Jun-16 17:30N 37°58' E 023°36'0 0.0
2018-Jun-16 16:59N 37°58' E 023°36'0 0.0
2018-Jun-16 16:29N 37°58' E 023°36'0 0.0
2018-Jun-16 15:59N 37°58' E 023°36'0 0.0
2018-Jun-16 15:29N 37°58' E 023°36'0 0.0
2018-Jun-16 14:59N 37°58' E 023°36'0 0.0
2018-Jun-16 14:29N 37°58' E 023°36'0 0.0
2018-Jun-16 13:59N 37°58' E 023°36'0 0.0
2018-Jun-16 13:29N 37°58' E 023°36'0 0.0
2018-Jun-16 12:59N 37°58' E 023°36'0 0.0
2018-Jun-16 12:29N 37°58' E 023°36'0 0.0
2018-Jun-16 11:59N 37°58' E 023°36'0 0.2
2018-Jun-16 11:31N 37°57' E 023°36'3 5.4
2018-Jun-16 11:00N 37°55' E 023°36'0 0.8
2018-Jun-16 10:30N 37°54' E 023°36'1 2.5
2018-Jun-16 10:00N 37°54' E 023°37'2 3.5
2018-Jun-16 09:31N 37°53' E 023°38'4 8.6
2018-Jun-16 09:00N 37°49' E 023°40'611.2
2018-Jun-16 08:31N 37°44' E 023°43'510.6
2018-Jun-16 08:00N 37°38' E 023°45'611.3
2018-Jun-16 07:30N 37°33' E 023°44'1311.1
2018-Jun-16 06:20N 37°20' E 023°40'  
2018-Jun-13 14:49N 42°60' E 010°03'516.9
2018-Jun-13 14:30N 43°05' E 010°05'817.0
2018-Jun-13 14:01N 43°13' E 010°07'816.9
2018-Jun-13 13:30N 43°21' E 010°09'815.6
2018-Jun-13 13:00N 43°29' E 010°11'510.0
2018-Jun-13 12:31N 43°32' E 010°16'2 4.5
2018-Jun-13 12:00N 43°34' E 010°18'1 1.4
2018-Jun-13 11:28N 43°35' E 010°18'0 0.0
2018-Jun-13 10:58N 43°35' E 010°18'0 0.0
2018-Jun-13 10:28N 43°35' E 010°18'0 0.0
2018-Jun-13 09:55N 43°35' E 010°18'0 0.0
2018-Jun-13 09:28N 43°35' E 010°18'0 0.0
2018-Jun-13 08:58N 43°35' E 010°18'0 0.0
2018-Jun-13 08:28N 43°35' E 010°18'0 0.0
2018-Jun-13 07:58N 43°35' E 010°18'0 0.0
2018-Jun-13 07:28N 43°35' E 010°18'0 0.0
2018-Jun-13 06:58N 43°35' E 010°18'0 0.0
2018-Jun-13 06:28N 43°35' E 010°18'0 0.0
2018-Jun-13 05:58N 43°35' E 010°18'0 0.0
2018-Jun-13 05:28N 43°35' E 010°18'0 0.0
2018-Jun-13 04:58N 43°35' E 010°18'0 0.0
2018-Jun-13 04:28N 43°35' E 010°18'0 0.0
2018-Jun-13 03:58N 43°35' E 010°18'0 0.0
2018-Jun-13 03:28N 43°35' E 010°18'0 0.0
2018-Jun-13 02:58N 43°35' E 010°18'0 0.0
2018-Jun-13 02:28N 43°35' E 010°18'0 0.0
2018-Jun-13 01:55N 43°35' E 010°18'0 0.0
2018-Jun-13 01:28N 43°35' E 010°18'0 0.0
2018-Jun-13 00:58N 43°35' E 010°18'0 0.0
2018-Jun-13 00:28N 43°35' E 010°18'0 0.0
2018-Jun-12 23:58N 43°35' E 010°18'0 0.0
2018-Jun-12 23:28N 43°35' E 010°18'0 0.0
2018-Jun-12 22:58N 43°35' E 010°18'0 0.0
2018-Jun-12 22:28N 43°35' E 010°18'0 0.0
2018-Jun-12 21:58N 43°35' E 010°18'0 0.0
2018-Jun-12 21:25N 43°35' E 010°18'0 0.0
2018-Jun-12 20:55N 43°35' E 010°18'0 0.0
2018-Jun-12 20:28N 43°35' E 010°18'0 0.0
2018-Jun-12 19:58N 43°35' E 010°18'0 0.0
2018-Jun-12 19:28N 43°35' E 010°18'0 0.0
2018-Jun-12 18:58N 43°35' E 010°18'0 0.0
2018-Jun-12 18:28N 43°35' E 010°18'0 0.0
2018-Jun-12 17:58N 43°35' E 010°18'0 0.0
2018-Jun-12 17:28N 43°35' E 010°18'0 0.0
2018-Jun-12 16:58N 43°35' E 010°18'0 0.0
2018-Jun-12 16:28N 43°35' E 010°18'0 0.0
2018-Jun-12 15:58N 43°35' E 010°18'0 0.0
2018-Jun-12 15:28N 43°35' E 010°18'1 1.8
2018-Jun-12 15:01N 43°34' E 010°18'3 6.3
2018-Jun-12 14:30N 43°32' E 010°16'3 7.0
2018-Jun-12 14:00N 43°29' E 010°12'612.6
2018-Jun-12 13:30N 43°24' E 010°07'612.9
2018-Jun-12 13:00N 43°19' E 010°01'612.8
2018-Jun-12 12:30N 43°16' E 009°54'713.4
2018-Jun-12 12:00N 43°14' E 009°45'713.6
2018-Jun-12 11:30N 43°12' E 009°36'713.4
2018-Jun-12 11:00N 43°09' E 009°27'713.1
2018-Jun-12 10:29N 43°07' E 009°19'713.4
2018-Jun-12 10:00N 43°04' E 009°11'714.0
2018-Jun-12 09:30N 43°02' E 009°02'  

Dump ship's entire track history